sensor_id;sensor_type;location;lat;lon;timestamp;P1;durP1;ratioP1;P2;durP2;ratioP2
62582;SDS011;48641;51.676;5.808;2024-03-08T00:00:40;17.55;;;9.75;;
62582;SDS011;48641;51.676;5.808;2024-03-08T00:03:07;14.70;;;8.32;;
62582;SDS011;48641;51.676;5.808;2024-03-08T00:05:35;16.77;;;9.68;;
62582;SDS011;48641;51.676;5.808;2024-03-08T00:08:03;17.67;;;9.87;;
62582;SDS011;48641;51.676;5.808;2024-03-08T00:10:30;16.88;;;8.98;;
62582;SDS011;48641;51.676;5.808;2024-03-08T00:12:55;14.85;;;8.85;;
62582;SDS011;48641;51.676;5.808;2024-03-08T00:15:22;17.10;;;9.35;;
62582;SDS011;48641;51.676;5.808;2024-03-08T00:17:48;19.08;;;9.52;;
62582;SDS011;48641;51.676;5.808;2024-03-08T00:20:14;15.38;;;9.20;;
62582;SDS011;48641;51.676;5.808;2024-03-08T00:22:42;18.23;;;9.45;;
62582;SDS011;48641;51.676;5.808;2024-03-08T00:25:08;16.55;;;9.15;;
62582;SDS011;48641;51.676;5.808;2024-03-08T00:27:35;14.93;;;7.82;;
62582;SDS011;48641;51.676;5.808;2024-03-08T00:30:01;15.55;;;8.65;;
62582;SDS011;48641;51.676;5.808;2024-03-08T00:32:26;18.70;;;9.02;;
62582;SDS011;48641;51.676;5.808;2024-03-08T00:34:52;15.40;;;8.77;;
62582;SDS011;48641;51.676;5.808;2024-03-08T00:37:19;14.15;;;9.20;;
62582;SDS011;48641;51.676;5.808;2024-03-08T00:39:45;15.60;;;8.43;;
62582;SDS011;48641;51.676;5.808;2024-03-08T00:42:11;14.13;;;8.52;;
62582;SDS011;48641;51.676;5.808;2024-03-08T00:44:37;17.60;;;9.82;;
62582;SDS011;48641;51.676;5.808;2024-03-08T00:47:02;14.45;;;8.70;;
62582;SDS011;48641;51.676;5.808;2024-03-08T00:49:29;14.85;;;8.45;;
62582;SDS011;48641;51.676;5.808;2024-03-08T00:51:55;12.82;;;7.57;;
62582;SDS011;48641;51.676;5.808;2024-03-08T00:54:21;14.93;;;8.80;;
62582;SDS011;48641;51.676;5.808;2024-03-08T00:56:46;14.70;;;7.82;;
62582;SDS011;48641;51.676;5.808;2024-03-08T00:59:12;14.80;;;8.30;;
62582;SDS011;48641;51.676;5.808;2024-03-08T01:01:40;15.02;;;7.95;;
62582;SDS011;48641;51.676;5.808;2024-03-08T01:04:06;14.88;;;9.55;;
62582;SDS011;48641;51.676;5.808;2024-03-08T01:06:32;14.45;;;8.35;;
62582;SDS011;48641;51.676;5.808;2024-03-08T01:08:59;14.18;;;8.13;;
62582;SDS011;48641;51.676;5.808;2024-03-08T01:11:24;14.85;;;8.38;;
62582;SDS011;48641;51.676;5.808;2024-03-08T01:13:50;16.05;;;9.18;;
62582;SDS011;48641;51.676;5.808;2024-03-08T01:16:15;13.57;;;8.35;;
62582;SDS011;48641;51.676;5.808;2024-03-08T01:18:42;15.27;;;8.65;;
62582;SDS011;48641;51.676;5.808;2024-03-08T01:21:08;12.77;;;8.13;;
62582;SDS011;48641;51.676;5.808;2024-03-08T01:23:34;15.57;;;8.35;;
62582;SDS011;48641;51.676;5.808;2024-03-08T01:26:00;13.32;;;8.18;;
62582;SDS011;48641;51.676;5.808;2024-03-08T01:28:27;15.07;;;8.25;;
62582;SDS011;48641;51.676;5.808;2024-03-08T01:30:53;14.15;;;8.45;;
62582;SDS011;48641;51.676;5.808;2024-03-08T01:33:24;15.00;;;8.60;;
62582;SDS011;48641;51.676;5.808;2024-03-08T01:35:51;13.63;;;7.65;;
62582;SDS011;48641;51.676;5.808;2024-03-08T01:38:17;12.68;;;7.45;;
62582;SDS011;48641;51.676;5.808;2024-03-08T01:40:43;14.35;;;8.57;;
62582;SDS011;48641;51.676;5.808;2024-03-08T01:43:22;14.10;;;8.50;;
62582;SDS011;48641;51.676;5.808;2024-03-08T01:45:55;13.68;;;7.72;;
62582;SDS011;48641;51.676;5.808;2024-03-08T01:48:26;14.25;;;8.45;;
62582;SDS011;48641;51.676;5.808;2024-03-08T01:50:54;14.95;;;8.75;;
62582;SDS011;48641;51.676;5.808;2024-03-08T01:53:21;13.07;;;8.23;;
62582;SDS011;48641;51.676;5.808;2024-03-08T01:55:48;14.73;;;7.57;;
62582;SDS011;48641;51.676;5.808;2024-03-08T01:58:14;15.48;;;8.15;;
62582;SDS011;48641;51.676;5.808;2024-03-08T02:00:40;13.90;;;7.32;;
62582;SDS011;48641;51.676;5.808;2024-03-08T02:05:35;12.90;;;7.55;;
62582;SDS011;48641;51.676;5.808;2024-03-08T02:08:03;12.45;;;8.07;;
62582;SDS011;48641;51.676;5.808;2024-03-08T02:10:32;12.95;;;8.27;;
62582;SDS011;48641;51.676;5.808;2024-03-08T02:12:58;14.68;;;9.27;;
62582;SDS011;48641;51.676;5.808;2024-03-08T02:15:24;12.85;;;7.60;;
62582;SDS011;48641;51.676;5.808;2024-03-08T02:17:51;14.27;;;8.65;;
62582;SDS011;48641;51.676;5.808;2024-03-08T02:20:18;15.02;;;9.70;;
62582;SDS011;48641;51.676;5.808;2024-03-08T02:22:44;14.50;;;8.57;;
62582;SDS011;48641;51.676;5.808;2024-03-08T02:25:11;14.55;;;8.85;;
62582;SDS011;48641;51.676;5.808;2024-03-08T02:27:36;15.48;;;8.90;;
62582;SDS011;48641;51.676;5.808;2024-03-08T02:30:02;14.32;;;8.45;;
62582;SDS011;48641;51.676;5.808;2024-03-08T02:32:30;15.48;;;9.90;;
62582;SDS011;48641;51.676;5.808;2024-03-08T02:34:57;14.73;;;9.25;;
62582;SDS011;48641;51.676;5.808;2024-03-08T02:37:24;15.20;;;8.07;;
62582;SDS011;48641;51.676;5.808;2024-03-08T02:39:50;14.20;;;8.13;;
62582;SDS011;48641;51.676;5.808;2024-03-08T02:42:16;15.52;;;9.95;;
62582;SDS011;48641;51.676;5.808;2024-03-08T02:44:44;13.88;;;8.40;;
62582;SDS011;48641;51.676;5.808;2024-03-08T02:47:10;14.55;;;8.82;;
62582;SDS011;48641;51.676;5.808;2024-03-08T02:49:36;14.95;;;9.45;;
62582;SDS011;48641;51.676;5.808;2024-03-08T02:52:03;14.27;;;9.27;;
62582;SDS011;48641;51.676;5.808;2024-03-08T02:54:29;12.98;;;7.53;;
62582;SDS011;48641;51.676;5.808;2024-03-08T02:56:55;14.40;;;8.70;;
62582;SDS011;48641;51.676;5.808;2024-03-08T02:59:21;14.77;;;8.88;;
62582;SDS011;48641;51.676;5.808;2024-03-08T03:01:47;15.27;;;8.02;;
62582;SDS011;48641;51.676;5.808;2024-03-08T03:04:12;16.38;;;9.85;;
62582;SDS011;48641;51.676;5.808;2024-03-08T03:06:38;13.98;;;8.93;;
62582;SDS011;48641;51.676;5.808;2024-03-08T03:09:03;14.20;;;8.27;;
62582;SDS011;48641;51.676;5.808;2024-03-08T03:11:31;15.43;;;8.85;;
62582;SDS011;48641;51.676;5.808;2024-03-08T03:13:57;15.18;;;9.43;;
62582;SDS011;48641;51.676;5.808;2024-03-08T03:16:22;14.35;;;8.85;;
62582;SDS011;48641;51.676;5.808;2024-03-08T03:18:48;15.02;;;9.10;;
62582;SDS011;48641;51.676;5.808;2024-03-08T03:21:14;14.05;;;8.43;;
62582;SDS011;48641;51.676;5.808;2024-03-08T03:23:40;18.23;;;10.15;;
62582;SDS011;48641;51.676;5.808;2024-03-08T03:26:07;14.98;;;8.68;;
62582;SDS011;48641;51.676;5.808;2024-03-08T03:28:38;14.93;;;8.73;;
62582;SDS011;48641;51.676;5.808;2024-03-08T03:31:05;14.73;;;9.07;;
62582;SDS011;48641;51.676;5.808;2024-03-08T03:33:31;15.95;;;9.35;;
62582;SDS011;48641;51.676;5.808;2024-03-08T03:35:59;14.73;;;9.25;;
62582;SDS011;48641;51.676;5.808;2024-03-08T03:38:25;15.80;;;9.07;;
62582;SDS011;48641;51.676;5.808;2024-03-08T03:40:52;14.40;;;8.70;;
62582;SDS011;48641;51.676;5.808;2024-03-08T03:43:22;15.77;;;10.10;;
62582;SDS011;48641;51.676;5.808;2024-03-08T03:45:48;14.40;;;7.93;;
62582;SDS011;48641;51.676;5.808;2024-03-08T03:48:13;14.00;;;8.60;;
62582;SDS011;48641;51.676;5.808;2024-03-08T03:50:39;11.73;;;7.55;;
62582;SDS011;48641;51.676;5.808;2024-03-08T03:53:04;14.77;;;8.32;;
62582;SDS011;48641;51.676;5.808;2024-03-08T03:55:33;13.52;;;7.80;;
62582;SDS011;48641;51.676;5.808;2024-03-08T03:57:58;12.98;;;8.15;;
62582;SDS011;48641;51.676;5.808;2024-03-08T04:00:26;12.32;;;7.63;;
62582;SDS011;48641;51.676;5.808;2024-03-08T04:02:52;16.73;;;9.32;;
62582;SDS011;48641;51.676;5.808;2024-03-08T04:05:18;14.30;;;8.43;;
62582;SDS011;48641;51.676;5.808;2024-03-08T04:07:43;12.63;;;7.78;;
62582;SDS011;48641;51.676;5.808;2024-03-08T04:10:10;13.70;;;8.55;;
62582;SDS011;48641;51.676;5.808;2024-03-08T04:12:36;12.50;;;7.60;;
62582;SDS011;48641;51.676;5.808;2024-03-08T04:15:02;12.93;;;7.78;;
62582;SDS011;48641;51.676;5.808;2024-03-08T04:17:29;12.73;;;7.93;;
62582;SDS011;48641;51.676;5.808;2024-03-08T04:19:56;13.95;;;8.52;;
62582;SDS011;48641;51.676;5.808;2024-03-08T04:22:22;13.93;;;8.63;;
62582;SDS011;48641;51.676;5.808;2024-03-08T04:24:47;13.52;;;7.65;;
62582;SDS011;48641;51.676;5.808;2024-03-08T04:27:13;12.48;;;7.75;;
62582;SDS011;48641;51.676;5.808;2024-03-08T04:29:41;17.30;;;10.75;;
62582;SDS011;48641;51.676;5.808;2024-03-08T04:32:07;13.73;;;8.38;;
62582;SDS011;48641;51.676;5.808;2024-03-08T04:34:33;13.50;;;7.97;;
62582;SDS011;48641;51.676;5.808;2024-03-08T04:36:59;14.40;;;9.70;;
62582;SDS011;48641;51.676;5.808;2024-03-08T04:39:26;15.27;;;8.95;;
62582;SDS011;48641;51.676;5.808;2024-03-08T04:41:55;12.90;;;8.27;;
62582;SDS011;48641;51.676;5.808;2024-03-08T04:44:23;14.25;;;8.77;;
62582;SDS011;48641;51.676;5.808;2024-03-08T04:46:49;14.88;;;8.60;;
62582;SDS011;48641;51.676;5.808;2024-03-08T04:49:15;13.27;;;8.02;;
62582;SDS011;48641;51.676;5.808;2024-03-08T04:51:41;16.30;;;9.70;;
62582;SDS011;48641;51.676;5.808;2024-03-08T04:54:06;14.43;;;9.20;;
62582;SDS011;48641;51.676;5.808;2024-03-08T04:56:32;16.00;;;9.27;;
62582;SDS011;48641;51.676;5.808;2024-03-08T04:58:58;16.17;;;10.35;;
62582;SDS011;48641;51.676;5.808;2024-03-08T05:01:24;16.20;;;8.98;;
62582;SDS011;48641;51.676;5.808;2024-03-08T05:03:49;15.55;;;9.73;;
62582;SDS011;48641;51.676;5.808;2024-03-08T05:06:16;15.52;;;10.35;;
62582;SDS011;48641;51.676;5.808;2024-03-08T05:08:41;13.40;;;8.73;;
62582;SDS011;48641;51.676;5.808;2024-03-08T05:11:07;15.43;;;9.18;;
62582;SDS011;48641;51.676;5.808;2024-03-08T05:13:33;15.13;;;9.43;;
62582;SDS011;48641;51.676;5.808;2024-03-08T05:16:02;15.75;;;8.95;;
62582;SDS011;48641;51.676;5.808;2024-03-08T05:18:28;15.75;;;9.25;;
62582;SDS011;48641;51.676;5.808;2024-03-08T05:20:54;13.75;;;8.70;;
62582;SDS011;48641;51.676;5.808;2024-03-08T05:23:19;13.90;;;8.60;;
62582;SDS011;48641;51.676;5.808;2024-03-08T05:25:45;14.20;;;8.50;;
62582;SDS011;48641;51.676;5.808;2024-03-08T05:28:14;14.65;;;8.60;;
62582;SDS011;48641;51.676;5.808;2024-03-08T05:30:39;13.70;;;8.50;;
62582;SDS011;48641;51.676;5.808;2024-03-08T05:33:05;15.23;;;8.77;;
62582;SDS011;48641;51.676;5.808;2024-03-08T05:35:30;14.52;;;8.73;;
62582;SDS011;48641;51.676;5.808;2024-03-08T05:37:57;18.13;;;12.00;;
62582;SDS011;48641;51.676;5.808;2024-03-08T05:40:23;14.90;;;9.15;;
62582;SDS011;48641;51.676;5.808;2024-03-08T05:42:49;13.95;;;8.82;;
62582;SDS011;48641;51.676;5.808;2024-03-08T05:45:14;13.15;;;7.93;;
62582;SDS011;48641;51.676;5.808;2024-03-08T05:47:40;13.65;;;8.20;;
62582;SDS011;48641;51.676;5.808;2024-03-08T05:50:06;16.77;;;8.80;;
62582;SDS011;48641;51.676;5.808;2024-03-08T05:52:35;14.80;;;9.05;;
62582;SDS011;48641;51.676;5.808;2024-03-08T05:55:02;13.82;;;8.45;;
62582;SDS011;48641;51.676;5.808;2024-03-08T05:59:57;12.88;;;8.05;;
62582;SDS011;48641;51.676;5.808;2024-03-08T06:02:23;14.35;;;8.93;;
62582;SDS011;48641;51.676;5.808;2024-03-08T06:04:48;12.95;;;8.15;;
62582;SDS011;48641;51.676;5.808;2024-03-08T06:07:14;13.77;;;7.82;;
62582;SDS011;48641;51.676;5.808;2024-03-08T06:09:40;14.27;;;8.63;;
62582;SDS011;48641;51.676;5.808;2024-03-08T06:12:05;14.50;;;8.80;;
62582;SDS011;48641;51.676;5.808;2024-03-08T06:14:31;14.27;;;7.93;;
62582;SDS011;48641;51.676;5.808;2024-03-08T06:16:57;13.95;;;8.13;;
62582;SDS011;48641;51.676;5.808;2024-03-08T06:19:23;16.17;;;7.85;;
62582;SDS011;48641;51.676;5.808;2024-03-08T06:21:48;18.67;;;11.23;;
62582;SDS011;48641;51.676;5.808;2024-03-08T06:24:14;16.85;;;9.52;;
62582;SDS011;48641;51.676;5.808;2024-03-08T06:26:42;14.60;;;8.15;;
62582;SDS011;48641;51.676;5.808;2024-03-08T06:29:08;12.50;;;7.65;;
62582;SDS011;48641;51.676;5.808;2024-03-08T06:31:34;13.13;;;7.75;;
62582;SDS011;48641;51.676;5.808;2024-03-08T06:33:59;14.00;;;8.20;;
62582;SDS011;48641;51.676;5.808;2024-03-08T06:36:25;16.20;;;9.77;;
62582;SDS011;48641;51.676;5.808;2024-03-08T06:38:50;14.95;;;8.73;;
62582;SDS011;48641;51.676;5.808;2024-03-08T06:41:16;14.20;;;7.93;;
62582;SDS011;48641;51.676;5.808;2024-03-08T06:43:45;15.55;;;8.95;;
62582;SDS011;48641;51.676;5.808;2024-03-08T06:46:14;16.90;;;10.98;;
62582;SDS011;48641;51.676;5.808;2024-03-08T06:48:40;20.30;;;11.43;;
62582;SDS011;48641;51.676;5.808;2024-03-08T06:51:05;13.93;;;8.60;;
62582;SDS011;48641;51.676;5.808;2024-03-08T06:53:31;14.75;;;8.70;;
62582;SDS011;48641;51.676;5.808;2024-03-08T06:55:57;14.90;;;9.13;;
62582;SDS011;48641;51.676;5.808;2024-03-08T06:58:24;13.52;;;8.40;;
62582;SDS011;48641;51.676;5.808;2024-03-08T07:00:49;15.13;;;9.10;;
62582;SDS011;48641;51.676;5.808;2024-03-08T07:03:18;16.97;;;10.67;;
62582;SDS011;48641;51.676;5.808;2024-03-08T07:05:44;16.10;;;9.73;;
62582;SDS011;48641;51.676;5.808;2024-03-08T07:08:09;16.95;;;9.48;;
62582;SDS011;48641;51.676;5.808;2024-03-08T07:10:37;14.52;;;10.00;;
62582;SDS011;48641;51.676;5.808;2024-03-08T07:13:02;16.50;;;9.75;;
62582;SDS011;48641;51.676;5.808;2024-03-08T07:15:28;16.10;;;9.45;;
62582;SDS011;48641;51.676;5.808;2024-03-08T07:17:54;17.48;;;10.77;;
62582;SDS011;48641;51.676;5.808;2024-03-08T07:20:20;17.50;;;10.55;;
62582;SDS011;48641;51.676;5.808;2024-03-08T07:22:46;20.45;;;11.82;;
62582;SDS011;48641;51.676;5.808;2024-03-08T07:25:13;16.23;;;9.98;;
62582;SDS011;48641;51.676;5.808;2024-03-08T07:28:05;18.67;;;11.65;;
62582;SDS011;48641;51.676;5.808;2024-03-08T07:30:31;17.67;;;12.38;;
62582;SDS011;48641;51.676;5.808;2024-03-08T07:33:09;16.17;;;10.02;;
62582;SDS011;48641;51.676;5.808;2024-03-08T07:35:38;21.25;;;12.50;;
62582;SDS011;48641;51.676;5.808;2024-03-08T07:38:05;15.63;;;10.35;;
62582;SDS011;48641;51.676;5.808;2024-03-08T07:40:40;19.98;;;11.65;;
62582;SDS011;48641;51.676;5.808;2024-03-08T07:43:09;15.90;;;10.65;;
62582;SDS011;48641;51.676;5.808;2024-03-08T07:45:36;17.88;;;11.20;;
62582;SDS011;48641;51.676;5.808;2024-03-08T07:48:02;19.30;;;11.70;;
62582;SDS011;48641;51.676;5.808;2024-03-08T07:50:29;17.90;;;10.75;;
62582;SDS011;48641;51.676;5.808;2024-03-08T07:52:54;16.13;;;10.73;;
62582;SDS011;48641;51.676;5.808;2024-03-08T07:55:20;17.63;;;11.52;;
62582;SDS011;48641;51.676;5.808;2024-03-08T07:57:49;17.08;;;10.80;;
62582;SDS011;48641;51.676;5.808;2024-03-08T08:00:14;17.98;;;10.85;;
62582;SDS011;48641;51.676;5.808;2024-03-08T08:02:43;15.90;;;10.63;;
62582;SDS011;48641;51.676;5.808;2024-03-08T08:05:10;18.30;;;10.65;;
62582;SDS011;48641;51.676;5.808;2024-03-08T08:07:36;18.13;;;10.55;;
62582;SDS011;48641;51.676;5.808;2024-03-08T08:10:01;16.48;;;10.85;;
62582;SDS011;48641;51.676;5.808;2024-03-08T08:12:27;19.58;;;11.13;;
62582;SDS011;48641;51.676;5.808;2024-03-08T08:14:54;18.70;;;11.57;;
62582;SDS011;48641;51.676;5.808;2024-03-08T08:17:19;17.35;;;11.63;;
62582;SDS011;48641;51.676;5.808;2024-03-08T08:19:45;19.27;;;11.45;;
62582;SDS011;48641;51.676;5.808;2024-03-08T08:22:11;17.40;;;10.63;;
62582;SDS011;48641;51.676;5.808;2024-03-08T08:24:36;16.40;;;10.30;;
62582;SDS011;48641;51.676;5.808;2024-03-08T08:27:03;16.90;;;9.93;;
62582;SDS011;48641;51.676;5.808;2024-03-08T08:29:29;19.98;;;12.52;;
62582;SDS011;48641;51.676;5.808;2024-03-08T08:31:57;15.15;;;9.52;;
62582;SDS011;48641;51.676;5.808;2024-03-08T08:34:24;18.20;;;11.48;;
62582;SDS011;48641;51.676;5.808;2024-03-08T08:36:51;16.20;;;10.38;;
62582;SDS011;48641;51.676;5.808;2024-03-08T08:39:18;18.38;;;10.30;;
62582;SDS011;48641;51.676;5.808;2024-03-08T08:41:43;15.93;;;10.43;;
62582;SDS011;48641;51.676;5.808;2024-03-08T08:44:09;20.42;;;12.98;;
62582;SDS011;48641;51.676;5.808;2024-03-08T08:46:37;17.30;;;10.30;;
62582;SDS011;48641;51.676;5.808;2024-03-08T08:49:03;19.60;;;11.40;;
62582;SDS011;48641;51.676;5.808;2024-03-08T08:51:29;19.55;;;11.65;;
62582;SDS011;48641;51.676;5.808;2024-03-08T08:53:56;19.23;;;11.82;;
62582;SDS011;48641;51.676;5.808;2024-03-08T08:56:21;20.83;;;12.07;;
62582;SDS011;48641;51.676;5.808;2024-03-08T08:58:47;18.27;;;10.93;;
62582;SDS011;48641;51.676;5.808;2024-03-08T09:01:14;16.25;;;10.07;;
62582;SDS011;48641;51.676;5.808;2024-03-08T09:03:39;17.38;;;9.63;;
62582;SDS011;48641;51.676;5.808;2024-03-08T09:06:08;17.10;;;10.15;;
62582;SDS011;48641;51.676;5.808;2024-03-08T09:08:37;18.58;;;11.57;;
62582;SDS011;48641;51.676;5.808;2024-03-08T09:11:05;20.33;;;11.90;;
62582;SDS011;48641;51.676;5.808;2024-03-08T09:13:31;18.38;;;11.13;;
62582;SDS011;48641;51.676;5.808;2024-03-08T09:15:58;18.67;;;11.23;;
62582;SDS011;48641;51.676;5.808;2024-03-08T09:18:24;18.20;;;11.25;;
62582;SDS011;48641;51.676;5.808;2024-03-08T09:20:50;19.65;;;11.10;;
62582;SDS011;48641;51.676;5.808;2024-03-08T09:23:16;19.70;;;12.27;;
62582;SDS011;48641;51.676;5.808;2024-03-08T09:25:44;17.90;;;11.30;;
62582;SDS011;48641;51.676;5.808;2024-03-08T09:28:11;19.33;;;11.93;;
62582;SDS011;48641;51.676;5.808;2024-03-08T09:30:37;19.60;;;11.60;;
62582;SDS011;48641;51.676;5.808;2024-03-08T09:33:04;20.60;;;11.90;;
62582;SDS011;48641;51.676;5.808;2024-03-08T09:35:29;20.35;;;11.93;;
62582;SDS011;48641;51.676;5.808;2024-03-08T09:37:55;15.48;;;10.40;;
62582;SDS011;48641;51.676;5.808;2024-03-08T09:40:21;18.60;;;11.38;;
62582;SDS011;48641;51.676;5.808;2024-03-08T09:42:49;18.80;;;10.55;;
62582;SDS011;48641;51.676;5.808;2024-03-08T09:45:15;18.05;;;11.70;;
62582;SDS011;48641;51.676;5.808;2024-03-08T09:47:42;18.50;;;11.07;;
62582;SDS011;48641;51.676;5.808;2024-03-08T09:50:09;21.15;;;12.80;;
62582;SDS011;48641;51.676;5.808;2024-03-08T09:52:38;19.00;;;11.00;;
62582;SDS011;48641;51.676;5.808;2024-03-08T09:55:08;17.80;;;10.93;;
62582;SDS011;48641;51.676;5.808;2024-03-08T09:57:39;19.73;;;11.15;;
62582;SDS011;48641;51.676;5.808;2024-03-08T10:00:05;19.48;;;11.20;;
62582;SDS011;48641;51.676;5.808;2024-03-08T10:02:45;20.17;;;12.02;;
62582;SDS011;48641;51.676;5.808;2024-03-08T10:05:11;18.08;;;10.82;;
62582;SDS011;48641;51.676;5.808;2024-03-08T10:07:37;19.00;;;10.80;;
62582;SDS011;48641;51.676;5.808;2024-03-08T10:10:03;17.27;;;11.32;;
62582;SDS011;48641;51.676;5.808;2024-03-08T10:12:29;16.45;;;10.30;;
62582;SDS011;48641;51.676;5.808;2024-03-08T10:14:56;23.23;;;12.48;;
62582;SDS011;48641;51.676;5.808;2024-03-08T10:17:23;19.63;;;10.57;;
62582;SDS011;48641;51.676;5.808;2024-03-08T10:19:50;17.95;;;10.68;;
62582;SDS011;48641;51.676;5.808;2024-03-08T10:22:17;18.80;;;11.18;;
62582;SDS011;48641;51.676;5.808;2024-03-08T10:24:44;17.85;;;10.70;;
62582;SDS011;48641;51.676;5.808;2024-03-08T10:27:11;17.75;;;10.75;;
62582;SDS011;48641;51.676;5.808;2024-03-08T10:29:37;19.02;;;10.63;;
62582;SDS011;48641;51.676;5.808;2024-03-08T10:32:03;18.30;;;10.70;;
62582;SDS011;48641;51.676;5.808;2024-03-08T10:34:32;18.85;;;10.45;;
62582;SDS011;48641;51.676;5.808;2024-03-08T10:36:59;19.30;;;10.65;;
62582;SDS011;48641;51.676;5.808;2024-03-08T10:39:29;16.92;;;10.35;;
62582;SDS011;48641;51.676;5.808;2024-03-08T10:42:02;17.70;;;10.23;;
62582;SDS011;48641;51.676;5.808;2024-03-08T10:49:25;17.98;;;11.15;;
62582;SDS011;48641;51.676;5.808;2024-03-08T10:51:59;18.33;;;10.75;;
62582;SDS011;48641;51.676;5.808;2024-03-08T10:54:28;18.13;;;10.38;;
62582;SDS011;48641;51.676;5.808;2024-03-08T10:56:56;18.75;;;11.02;;
62582;SDS011;48641;51.676;5.808;2024-03-08T10:59:23;19.02;;;10.70;;
62582;SDS011;48641;51.676;5.808;2024-03-08T11:01:52;16.48;;;10.00;;
62582;SDS011;48641;51.676;5.808;2024-03-08T11:04:18;17.60;;;10.68;;
62582;SDS011;48641;51.676;5.808;2024-03-08T11:06:47;16.00;;;9.85;;
62582;SDS011;48641;51.676;5.808;2024-03-08T11:09:30;17.70;;;10.20;;
62582;SDS011;48641;51.676;5.808;2024-03-08T11:14:44;18.35;;;10.50;;
62582;SDS011;48641;51.676;5.808;2024-03-08T11:17:13;17.77;;;10.52;;
62582;SDS011;48641;51.676;5.808;2024-03-08T11:19:45;19.48;;;10.77;;
62582;SDS011;48641;51.676;5.808;2024-03-08T11:22:20;17.27;;;10.65;;
62582;SDS011;48641;51.676;5.808;2024-03-08T11:24:52;18.40;;;11.07;;
62582;SDS011;48641;51.676;5.808;2024-03-08T11:27:18;17.50;;;10.05;;
62582;SDS011;48641;51.676;5.808;2024-03-08T11:30:03;19.77;;;10.73;;
62582;SDS011;48641;51.676;5.808;2024-03-08T11:32:50;18.73;;;10.20;;
62582;SDS011;48641;51.676;5.808;2024-03-08T11:35:21;20.63;;;9.82;;
62582;SDS011;48641;51.676;5.808;2024-03-08T11:37:48;19.55;;;11.32;;
62582;SDS011;48641;51.676;5.808;2024-03-08T11:40:13;17.15;;;10.30;;
62582;SDS011;48641;51.676;5.808;2024-03-08T11:42:43;17.90;;;10.63;;
62582;SDS011;48641;51.676;5.808;2024-03-08T11:45:12;18.90;;;11.45;;
62582;SDS011;48641;51.676;5.808;2024-03-08T11:47:38;18.50;;;10.88;;
62582;SDS011;48641;51.676;5.808;2024-03-08T11:50:07;16.40;;;9.87;;
62582;SDS011;48641;51.676;5.808;2024-03-08T11:52:37;17.17;;;10.77;;
62582;SDS011;48641;51.676;5.808;2024-03-08T11:55:03;17.23;;;9.98;;
62582;SDS011;48641;51.676;5.808;2024-03-08T11:57:30;19.77;;;10.82;;
62582;SDS011;48641;51.676;5.808;2024-03-08T11:59:57;16.83;;;9.90;;
62582;SDS011;48641;51.676;5.808;2024-03-08T12:02:31;16.95;;;9.93;;
62582;SDS011;48641;51.676;5.808;2024-03-08T12:04:57;16.80;;;9.73;;
62582;SDS011;48641;51.676;5.808;2024-03-08T12:07:28;16.92;;;10.13;;
62582;SDS011;48641;51.676;5.808;2024-03-08T12:12:47;18.48;;;11.15;;
62582;SDS011;48641;51.676;5.808;2024-03-08T12:15:18;18.98;;;10.60;;
62582;SDS011;48641;51.676;5.808;2024-03-08T12:17:45;17.58;;;10.60;;
62582;SDS011;48641;51.676;5.808;2024-03-08T12:20:20;18.42;;;10.75;;
62582;SDS011;48641;51.676;5.808;2024-03-08T12:22:47;17.58;;;9.80;;
62582;SDS011;48641;51.676;5.808;2024-03-08T12:25:14;15.75;;;9.32;;
62582;SDS011;48641;51.676;5.808;2024-03-08T12:27:40;19.20;;;10.40;;
62582;SDS011;48641;51.676;5.808;2024-03-08T12:30:16;18.88;;;10.70;;
62582;SDS011;48641;51.676;5.808;2024-03-08T12:32:56;19.60;;;10.75;;
62582;SDS011;48641;51.676;5.808;2024-03-08T12:35:24;18.05;;;10.35;;
62582;SDS011;48641;51.676;5.808;2024-03-08T12:37:55;19.67;;;10.90;;
62582;SDS011;48641;51.676;5.808;2024-03-08T12:40:28;18.10;;;10.55;;
62582;SDS011;48641;51.676;5.808;2024-03-08T12:42:56;16.65;;;10.82;;
62582;SDS011;48641;51.676;5.808;2024-03-08T12:45:26;18.02;;;10.38;;
62582;SDS011;48641;51.676;5.808;2024-03-08T12:47:52;17.65;;;10.40;;
62582;SDS011;48641;51.676;5.808;2024-03-08T12:50:21;16.85;;;9.85;;
62582;SDS011;48641;51.676;5.808;2024-03-08T12:52:47;17.63;;;10.27;;
62582;SDS011;48641;51.676;5.808;2024-03-08T12:55:13;18.05;;;10.50;;
62582;SDS011;48641;51.676;5.808;2024-03-08T12:57:41;17.23;;;10.20;;
62582;SDS011;48641;51.676;5.808;2024-03-08T13:00:07;17.23;;;10.05;;
62582;SDS011;48641;51.676;5.808;2024-03-08T13:02:38;17.13;;;9.60;;
62582;SDS011;48641;51.676;5.808;2024-03-08T13:05:04;17.67;;;9.55;;
62582;SDS011;48641;51.676;5.808;2024-03-08T13:07:30;16.58;;;10.40;;
62582;SDS011;48641;51.676;5.808;2024-03-08T13:09:56;17.10;;;10.27;;
62582;SDS011;48641;51.676;5.808;2024-03-08T13:12:24;16.20;;;9.95;;
62582;SDS011;48641;51.676;5.808;2024-03-08T13:14:50;19.00;;;10.32;;
62582;SDS011;48641;51.676;5.808;2024-03-08T13:17:16;17.67;;;10.63;;
62582;SDS011;48641;51.676;5.808;2024-03-08T13:19:43;16.40;;;10.18;;
62582;SDS011;48641;51.676;5.808;2024-03-08T13:22:09;17.52;;;10.38;;
62582;SDS011;48641;51.676;5.808;2024-03-08T13:24:41;16.00;;;9.82;;
62582;SDS011;48641;51.676;5.808;2024-03-08T13:27:08;16.88;;;9.85;;
62582;SDS011;48641;51.676;5.808;2024-03-08T13:29:47;17.35;;;10.35;;
62582;SDS011;48641;51.676;5.808;2024-03-08T13:32:16;15.40;;;9.40;;
62582;SDS011;48641;51.676;5.808;2024-03-08T13:34:42;17.27;;;10.15;;
62582;SDS011;48641;51.676;5.808;2024-03-08T13:37:09;16.98;;;10.35;;
62582;SDS011;48641;51.676;5.808;2024-03-08T13:39:36;17.95;;;10.73;;
62582;SDS011;48641;51.676;5.808;2024-03-08T13:42:15;16.63;;;9.98;;
62582;SDS011;48641;51.676;5.808;2024-03-08T13:44:47;18.10;;;10.48;;
62582;SDS011;48641;51.676;5.808;2024-03-08T13:47:17;17.33;;;10.05;;
62582;SDS011;48641;51.676;5.808;2024-03-08T13:49:43;17.00;;;10.57;;
62582;SDS011;48641;51.676;5.808;2024-03-08T13:52:09;16.50;;;10.32;;
62582;SDS011;48641;51.676;5.808;2024-03-08T13:54:35;17.80;;;10.07;;
62582;SDS011;48641;51.676;5.808;2024-03-08T13:57:01;17.27;;;10.57;;
62582;SDS011;48641;51.676;5.808;2024-03-08T13:59:31;17.23;;;10.27;;
62582;SDS011;48641;51.676;5.808;2024-03-08T14:01:58;17.23;;;9.60;;
62582;SDS011;48641;51.676;5.808;2024-03-08T14:04:28;19.35;;;10.88;;
62582;SDS011;48641;51.676;5.808;2024-03-08T14:06:53;16.42;;;9.98;;
62582;SDS011;48641;51.676;5.808;2024-03-08T14:09:25;19.50;;;11.07;;
62582;SDS011;48641;51.676;5.808;2024-03-08T14:11:57;17.50;;;10.07;;
62582;SDS011;48641;51.676;5.808;2024-03-08T14:14:23;17.67;;;10.02;;
62582;SDS011;48641;51.676;5.808;2024-03-08T14:16:49;17.58;;;10.27;;
62582;SDS011;48641;51.676;5.808;2024-03-08T14:19:18;17.52;;;9.93;;
62582;SDS011;48641;51.676;5.808;2024-03-08T14:21:44;17.35;;;10.60;;
62582;SDS011;48641;51.676;5.808;2024-03-08T14:24:10;16.92;;;10.00;;
62582;SDS011;48641;51.676;5.808;2024-03-08T14:26:35;19.20;;;10.02;;
62582;SDS011;48641;51.676;5.808;2024-03-08T14:29:03;17.75;;;9.45;;
62582;SDS011;48641;51.676;5.808;2024-03-08T14:31:30;16.92;;;10.13;;
62582;SDS011;48641;51.676;5.808;2024-03-08T14:33:56;16.25;;;10.43;;
62582;SDS011;48641;51.676;5.808;2024-03-08T14:36:23;17.85;;;10.32;;
62582;SDS011;48641;51.676;5.808;2024-03-08T14:38:50;16.88;;;9.90;;
62582;SDS011;48641;51.676;5.808;2024-03-08T14:41:17;15.98;;;10.02;;
62582;SDS011;48641;51.676;5.808;2024-03-08T14:43:43;16.58;;;10.52;;